Time;durP1;ratioP1;P1;durP2;ratioP2;P2;SDS_P1;SDS_P2;PMS_P1;PMS_P2;Temp;Humidity;BMP_temperature;BMP_pressure;BME280_temperature;BME280_humidity;BME280_pressure;Samples;Min_cycle;Max_cycle;Signal;HPM_P1;HPM_P2
2024/01/22 00:00:50;;;;;;;2.80;2.20;;;;;;;;;;5096417;28;20103;-83
2024/01/22 00:03:17;;;;;;;5.10;3.35;;;;;;;;;;5095377;28;20043;-84
2024/01/22 00:05:43;;;;;;;5.90;2.42;;;;;;;;;;5097461;28;20048;-85
2024/01/22 00:08:11;;;;;;;4.80;2.75;;;;;;;;;;5106521;28;20093;-85
2024/01/22 00:10:37;;;;;;;4.25;3.20;;;;;;;;;;5077933;28;20081;-81
2024/01/22 00:13:03;;;;;;;6.18;4.18;;;;;;;;;;5095691;28;20453;-83
2024/01/22 00:15:29;;;;;;;3.85;2.70;;;;;;;;;;5095383;28;20563;-85
2024/01/22 00:17:55;;;;;;;4.93;3.60;;;;;;;;;;5093745;28;20074;-82
2024/01/22 00:20:22;;;;;;;4.78;3.10;;;;;;;;;;5090867;28;20040;-85
2024/01/22 00:22:48;;;;;;;4.75;2.63;;;;;;;;;;5094904;28;20078;-83
2024/01/22 00:25:14;;;;;;;5.93;2.65;;;;;;;;;;5096029;28;20043;-83
2024/01/22 00:27:40;;;;;;;7.60;3.17;;;;;;;;;;5089199;28;20044;-82
2024/01/22 00:30:07;;;;;;;2.65;1.67;;;;;;;;;;5093833;28;20043;-82
2024/01/22 00:32:33;;;;;;;1.88;1.52;;;;;;;;;;5092407;28;20044;-85
2024/01/22 00:34:59;;;;;;;4.05;2.10;;;;;;;;;;5092349;28;20050;-81
2024/01/22 00:37:25;;;;;;;5.97;3.67;;;;;;;;;;5093411;28;20540;-82
2024/01/22 00:39:55;;;;;;;5.85;3.05;;;;;;;;;;5092742;28;20044;-83
2024/01/22 00:42:21;;;;;;;5.30;3.10;;;;;;;;;;5095428;28;20089;-82
2024/01/22 00:44:47;;;;;;;6.32;3.05;;;;;;;;;;5093769;28;20373;-83
2024/01/22 00:47:13;;;;;;;3.63;2.47;;;;;;;;;;5075909;28;20043;-82
2024/01/22 00:49:39;;;;;;;5.93;3.83;;;;;;;;;;5093015;28;20032;-82
2024/01/22 00:52:05;;;;;;;6.38;3.15;;;;;;;;;;5093886;28;20024;-85
2024/01/22 00:54:31;;;;;;;3.95;1.90;;;;;;;;;;5091541;28;20177;-83
2024/01/22 00:56:58;;;;;;;4.60;2.70;;;;;;;;;;5092817;28;20044;-82
2024/01/22 00:59:24;;;;;;;5.00;2.03;;;;;;;;;;5094936;28;20119;-85
2024/01/22 01:01:50;;;;;;;4.82;2.58;;;;;;;;;;5092959;28;20043;-83
2024/01/22 01:04:16;;;;;;;5.72;2.70;;;;;;;;;;5092654;28;20036;-84
2024/01/22 01:06:43;;;;;;;3.42;2.20;;;;;;;;;;5094622;28;20043;-82
2024/01/22 01:09:09;;;;;;;3.78;2.88;;;;;;;;;;5076565;28;20047;-84
2024/01/22 01:11:35;;;;;;;5.88;2.95;;;;;;;;;;5092369;28;20137;-82
2024/01/22 01:14:01;;;;;;;5.65;3.40;;;;;;;;;;5093548;28;20482;-83
2024/01/22 01:16:28;;;;;;;2.60;1.58;;;;;;;;;;5092512;28;20061;-85
2024/01/22 01:18:54;;;;;;;3.03;2.67;;;;;;;;;;5091685;28;20051;-82
2024/01/22 01:21:22;;;;;;;7.80;2.42;;;;;;;;;;5093741;28;20078;-84
2024/01/22 01:23:49;;;;;;;3.53;2.42;;;;;;;;;;5089230;28;20044;-83
2024/01/22 01:26:15;;;;;;;6.25;3.13;;;;;;;;;;5092927;28;20036;-82
2024/01/22 01:28:41;;;;;;;5.25;2.15;;;;;;;;;;5092312;28;20043;-83
2024/01/22 01:31:07;;;;;;;3.17;2.25;;;;;;;;;;5089518;28;20412;-82
2024/01/22 01:33:34;;;;;;;3.10;1.98;;;;;;;;;;5095346;28;20028;-83
2024/01/22 01:36:00;;;;;;;3.33;2.63;;;;;;;;;;5094493;28;20095;-83
2024/01/22 01:38:26;;;;;;;4.40;3.15;;;;;;;;;;5094345;28;20483;-82
2024/01/22 01:40:52;;;;;;;3.28;2.40;;;;;;;;;;5092629;28;20106;-83
2024/01/22 01:43:18;;;;;;;3.85;2.45;;;;;;;;;;5093362;28;20044;-82
2024/01/22 01:45:45;;;;;;;4.53;2.58;;;;;;;;;;5091069;28;20052;-82
2024/01/22 01:48:12;;;;;;;6.43;3.88;;;;;;;;;;5091508;28;20036;-83
2024/01/22 01:50:38;;;;;;;4.85;3.17;;;;;;;;;;5075024;28;20047;-86
2024/01/22 01:53:04;;;;;;;2.67;2.00;;;;;;;;;;5092375;28;20040;-84
2024/01/22 01:55:30;;;;;;;5.38;3.13;;;;;;;;;;5093945;28;20378;-82
2024/01/22 01:57:57;;;;;;;2.88;2.55;;;;;;;;;;5093926;28;20384;-84
2024/01/22 02:00:23;;;;;;;3.78;1.42;;;;;;;;;;5094146;28;20032;-85
2024/01/22 02:02:49;;;;;;;4.13;3.05;;;;;;;;;;5074821;28;20479;-83
2024/01/22 02:05:15;;;;;;;4.78;2.38;;;;;;;;;;5096548;28;20047;-83
2024/01/22 02:07:41;;;;;;;5.63;3.35;;;;;;;;;;5077861;28;20051;-83
2024/01/22 02:10:12;;;;;;;6.13;3.80;;;;;;;;;;5098092;28;20044;-82
2024/01/22 02:12:38;;;;;;;3.45;2.72;;;;;;;;;;5096389;28;20376;-82
2024/01/22 02:15:05;;;;;;;4.15;2.05;;;;;;;;;;5095557;28;20136;-83
2024/01/22 02:17:31;;;;;;;3.90;2.80;;;;;;;;;;5096230;28;20044;-83
2024/01/22 02:19:57;;;;;;;5.93;3.20;;;;;;;;;;5079414;28;20059;-83
2024/01/22 02:22:23;;;;;;;3.50;2.80;;;;;;;;;;5098410;28;20040;-84
2024/01/22 02:24:49;;;;;;;2.95;2.20;;;;;;;;;;5094241;28;20122;-83
2024/01/22 02:27:15;;;;;;;4.50;2.10;;;;;;;;;;5098094;28;20032;-85
2024/01/22 02:29:41;;;;;;;4.78;2.92;;;;;;;;;;5079230;28;20123;-84
2024/01/22 02:32:08;;;;;;;5.13;3.30;;;;;;;;;;5094322;28;20051;-83
2024/01/22 02:34:34;;;;;;;3.97;2.75;;;;;;;;;;5098894;28;20044;-86
2024/01/22 02:37:00;;;;;;;3.00;2.00;;;;;;;;;;5082984;28;20040;-84
2024/01/22 02:39:26;;;;;;;8.07;3.67;;;;;;;;;;5094862;28;20131;-82
2024/01/22 02:41:52;;;;;;;6.30;3.50;;;;;;;;;;5101916;28;20071;-83
2024/01/22 02:44:18;;;;;;;3.38;2.15;;;;;;;;;;5096483;28;20484;-84
2024/01/22 02:46:44;;;;;;;3.80;2.75;;;;;;;;;;5091728;28;20075;-83
2024/01/22 02:49:10;;;;;;;3.92;2.67;;;;;;;;;;5092948;28;20666;-82
2024/01/22 02:51:36;;;;;;;3.45;2.08;;;;;;;;;;5093924;28;20039;-85
2024/01/22 02:54:04;;;;;;;4.65;2.97;;;;;;;;;;5093214;28;20036;-83
2024/01/22 02:56:30;;;;;;;11.02;2.83;;;;;;;;;;5094759;28;20040;-84
2024/01/22 02:58:56;;;;;;;3.80;2.55;;;;;;;;;;5093438;28;20564;-87
2024/01/22 03:01:22;;;;;;;3.22;2.70;;;;;;;;;;5090926;28;20142;-83
2024/01/22 03:03:48;;;;;;;3.97;2.40;;;;;;;;;;5093406;28;20082;-83
2024/01/22 03:06:14;;;;;;;4.85;2.25;;;;;;;;;;5095140;28;20043;-87
2024/01/22 03:08:40;;;;;;;5.20;2.65;;;;;;;;;;5093789;28;20480;-83
2024/01/22 03:11:07;;;;;;;3.75;1.90;;;;;;;;;;5081407;28;20051;-83
2024/01/22 03:13:34;;;;;;;7.15;3.80;;;;;;;;;;5100160;28;20044;-83
2024/01/22 03:16:00;;;;;;;4.45;2.53;;;;;;;;;;5106583;28;20048;-85
2024/01/22 03:18:26;;;;;;;6.32;3.08;;;;;;;;;;5096221;28;20903;-87
2024/01/22 03:20:52;;;;;;;3.78;2.47;;;;;;;;;;5096131;28;20032;-83
2024/01/22 03:23:18;;;;;;;2.15;1.95;;;;;;;;;;5095425;28;20063;-84
2024/01/22 03:25:44;;;;;;;1.98;1.45;;;;;;;;;;5095646;28;20044;-83
2024/01/22 03:28:10;;;;;;;3.70;2.38;;;;;;;;;;5091723;28;20036;-84
2024/01/22 03:30:36;;;;;;;4.93;2.13;;;;;;;;;;5094760;28;20496;-85
2024/01/22 03:33:02;;;;;;;2.50;1.95;;;;;;;;;;5075003;28;20067;-85
2024/01/22 03:35:28;;;;;;;3.97;2.40;;;;;;;;;;5094102;28;20028;-85
2024/01/22 03:37:54;;;;;;;3.92;2.85;;;;;;;;;;5096036;28;20044;-85
2024/01/22 03:40:20;;;;;;;3.55;2.30;;;;;;;;;;5095249;28;20082;-83
2024/01/22 03:42:46;;;;;;;3.30;2.35;;;;;;;;;;5095332;28;20072;-84
2024/01/22 03:45:12;;;;;;;6.93;3.08;;;;;;;;;;5094694;28;20031;-83
2024/01/22 03:47:38;;;;;;;4.70;3.38;;;;;;;;;;5093995;28;20048;-82
2024/01/22 03:50:06;;;;;;;2.03;1.77;;;;;;;;;;5094219;28;20404;-85
2024/01/22 03:52:32;;;;;;;3.95;2.20;;;;;;;;;;5094285;28;20123;-85
2024/01/22 03:54:58;;;;;;;4.28;3.47;;;;;;;;;;5094565;28;20059;-83
2024/01/22 03:57:24;;;;;;;2.20;1.65;;;;;;;;;;5096641;28;20039;-87
2024/01/22 03:59:50;;;;;;;1.88;1.67;;;;;;;;;;5074565;28;20039;-86
2024/01/22 04:02:16;;;;;;;2.97;2.05;;;;;;;;;;5094887;28;20036;-87
2024/01/22 04:04:42;;;;;;;3.63;2.30;;;;;;;;;;5094653;28;20044;-84
2024/01/22 04:07:08;;;;;;;1.80;1.50;;;;;;;;;;5093376;28;20087;-83
2024/01/22 04:09:34;;;;;;;2.67;2.10;;;;;;;;;;5093919;28;20407;-84
2024/01/22 04:12:01;;;;;;;3.00;2.33;;;;;;;;;;5097274;28;20032;-83
2024/01/22 04:14:27;;;;;;;1.95;1.67;;;;;;;;;;5092342;28;20036;-85
2024/01/22 04:16:53;;;;;;;2.70;2.20;;;;;;;;;;5093102;28;20044;-84
2024/01/22 04:19:19;;;;;;;2.55;2.22;;;;;;;;;;5078763;28;20039;-84
2024/01/22 04:21:46;;;;;;;3.67;1.70;;;;;;;;;;5093537;28;20040;-87
2024/01/22 04:24:12;;;;;;;1.48;1.38;;;;;;;;;;5076283;28;20059;-84
2024/01/22 04:26:38;;;;;;;3.05;2.10;;;;;;;;;;5092725;28;20044;-83
2024/01/22 04:29:04;;;;;;;3.15;2.17;;;;;;;;;;5094420;28;20048;-83
2024/01/22 04:31:30;;;;;;;3.78;2.10;;;;;;;;;;5095502;28;20071;-84
2024/01/22 04:33:56;;;;;;;3.95;2.60;;;;;;;;;;5094441;28;20048;-83
2024/01/22 04:36:22;;;;;;;5.63;3.88;;;;;;;;;;5095069;28;20035;-83
2024/01/22 04:38:48;;;;;;;1.63;1.52;;;;;;;;;;5094798;28;20369;-83
2024/01/22 04:41:14;;;;;;;3.33;2.50;;;;;;;;;;5093955;28;20039;-84
2024/01/22 04:43:40;;;;;;;3.40;2.05;;;;;;;;;;5085220;28;20045;-82
2024/01/22 04:46:07;;;;;;;1.20;1.05;;;;;;;;;;5094656;28;20040;-83
2024/01/22 04:48:33;;;;;;;3.03;1.50;;;;;;;;;;5077675;28;20040;-84
2024/01/22 04:50:59;;;;;;;2.22;2.03;;;;;;;;;;5094916;28;20044;-84
2024/01/22 04:53:25;;;;;;;4.70;2.50;;;;;;;;;;5093504;28;20151;-83
2024/01/22 04:55:51;;;;;;;2.30;1.75;;;;;;;;;;5095904;28;20047;-83
2024/01/22 04:58:18;;;;;;;1.92;1.40;;;;;;;;;;5094668;28;20443;-83
2024/01/22 05:00:45;;;;;;;2.30;2.10;;;;;;;;;;5092824;28;20128;-84
2024/01/22 05:03:10;;;;;;;2.10;1.90;;;;;;;;;;5095367;28;20431;-84
2024/01/22 05:05:37;;;;;;;2.67;2.03;;;;;;;;;;5095125;28;20194;-86
2024/01/22 05:08:03;;;;;;;2.50;1.55;;;;;;;;;;5097010;28;20048;-84
2024/01/22 05:10:29;;;;;;;2.05;1.38;;;;;;;;;;5097313;28;20044;-84
2024/01/22 05:12:55;;;;;;;1.80;1.50;;;;;;;;;;5094222;28;20858;-84
2024/01/22 05:15:21;;;;;;;2.60;1.70;;;;;;;;;;5076364;28;20036;-84
2024/01/22 05:17:47;;;;;;;1.77;1.15;;;;;;;;;;5096164;28;20058;-86
2024/01/22 05:20:13;;;;;;;2.00;1.15;;;;;;;;;;5083765;28;20032;-85
2024/01/22 05:22:39;;;;;;;2.33;1.58;;;;;;;;;;5097816;28;20514;-83
2024/01/22 05:25:07;;;;;;;2.22;1.40;;;;;;;;;;5101439;28;20036;-83
2024/01/22 05:27:33;;;;;;;3.90;2.17;;;;;;;;;;5084914;28;20036;-84
2024/01/22 05:29:59;;;;;;;2.20;1.73;;;;;;;;;;5098674;28;20190;-84
2024/01/22 05:32:25;;;;;;;1.98;1.40;;;;;;;;;;5095271;28;20028;-84
2024/01/22 05:34:54;;;;;;;1.50;1.05;;;;;;;;;;5093468;28;21469;-84
2024/01/22 05:37:20;;;;;;;2.05;1.10;;;;;;;;;;5093367;28;20146;-83
2024/01/22 05:39:46;;;;;;;2.65;1.35;;;;;;;;;;5095750;28;20515;-85
2024/01/22 05:42:12;;;;;;;2.95;1.40;;;;;;;;;;5097038;28;20043;-83
2024/01/22 05:44:38;;;;;;;0.70;0.70;;;;;;;;;;5094165;28;20071;-84
2024/01/22 05:47:04;;;;;;;3.47;1.48;;;;;;;;;;5095629;28;20530;-86
2024/01/22 05:49:30;;;;;;;1.38;0.85;;;;;;;;;;5094495;28;20119;-84
2024/01/22 05:51:56;;;;;;;1.60;1.50;;;;;;;;;;5093161;28;20470;-85
2024/01/22 05:54:22;;;;;;;3.63;0.85;;;;;;;;;;5095377;28;20077;-84
2024/01/22 05:56:48;;;;;;;0.63;0.63;;;;;;;;;;5093452;28;20044;-85
2024/01/22 05:59:14;;;;;;;2.10;1.10;;;;;;;;;;5095596;28;20123;-83
2024/01/22 06:01:40;;;;;;;1.33;0.95;;;;;;;;;;5094409;28;20118;-85
2024/01/22 06:04:06;;;;;;;1.83;1.08;;;;;;;;;;5078271;28;20036;-85
2024/01/22 06:06:32;;;;;;;2.22;0.90;;;;;;;;;;5093299;28;20042;-84
2024/01/22 06:08:59;;;;;;;2.03;1.00;;;;;;;;;;5099659;28;20048;-83
2024/01/22 06:11:26;;;;;;;1.95;0.75;;;;;;;;;;5098469;28;20095;-84
2024/01/22 06:13:52;;;;;;;5.78;2.05;;;;;;;;;;5099445;28;20115;-85
2024/01/22 06:16:18;;;;;;;2.85;0.80;;;;;;;;;;5081745;28;20098;-83
2024/01/22 06:18:45;;;;;;;0.98;0.75;;;;;;;;;;5100256;28;20036;-85
2024/01/22 06:21:13;;;;;;;1.50;1.13;;;;;;;;;;5098665;28;20036;-83
2024/01/22 06:23:39;;;;;;;2.88;0.68;;;;;;;;;;5095899;28;20047;-87
2024/01/22 06:26:05;;;;;;;0.35;0.35;;;;;;;;;;5099213;28;20040;-85
2024/01/22 06:28:31;;;;;;;1.40;0.60;;;;;;;;;;5085830;28;20078;-83
2024/01/22 06:30:58;;;;;;;2.38;0.45;;;;;;;;;;5098016;28;20508;-85
2024/01/22 06:33:24;;;;;;;0.98;0.40;;;;;;;;;;5098139;28;20064;-84
2024/01/22 06:35:50;;;;;;;2.10;0.70;;;;;;;;;;5080282;28;20043;-86
2024/01/22 06:38:19;;;;;;;0.73;0.60;;;;;;;;;;5079689;28;20036;-86
2024/01/22 06:40:46;;;;;;;2.20;0.73;;;;;;;;;;5096053;28;20063;-85
2024/01/22 06:43:12;;;;;;;0.60;0.47;;;;;;;;;;5098614;28;20066;-87
2024/01/22 06:45:38;;;;;;;0.60;0.60;;;;;;;;;;5077689;28;20082;-84
2024/01/22 06:48:04;;;;;;;0.60;0.60;;;;;;;;;;5079007;28;20036;-85
2024/01/22 06:50:30;;;;;;;1.73;0.80;;;;;;;;;;5078440;28;20385;-86
2024/01/22 06:52:56;;;;;;;2.63;1.05;;;;;;;;;;5096736;28;20062;-84
2024/01/22 06:55:23;;;;;;;3.22;0.85;;;;;;;;;;5097751;28;20036;-87
2024/01/22 06:57:49;;;;;;;1.48;0.57;;;;;;;;;;5079836;28;20143;-86
2024/01/22 07:00:16;;;;;;;3.28;1.27;;;;;;;;;;5092913;28;20103;-85
2024/01/22 07:02:43;;;;;;;1.73;0.47;;;;;;;;;;5074022;28;20036;-85
2024/01/22 07:05:10;;;;;;;4.15;1.05;;;;;;;;;;5091666;28;20101;-84
2024/01/22 07:07:37;;;;;;;3.50;1.42;;;;;;;;;;5092275;28;20068;-84
2024/01/22 07:10:05;;;;;;;4.55;1.75;;;;;;;;;;5094787;28;20032;-84
2024/01/22 07:12:31;;;;;;;4.03;1.88;;;;;;;;;;5092579;28;20044;-86
2024/01/22 07:14:58;;;;;;;3.55;1.77;;;;;;;;;;5093664;28;20044;-85
2024/01/22 07:17:24;;;;;;;3.22;0.60;;;;;;;;;;5093367;28;20043;-85
2024/01/22 07:19:50;;;;;;;6.10;1.88;;;;;;;;;;5090266;28;20403;-86
2024/01/22 07:22:17;;;;;;;6.35;1.67;;;;;;;;;;5093657;28;20036;-85
2024/01/22 07:24:43;;;;;;;2.40;0.68;;;;;;;;;;5075818;28;20118;-85
2024/01/22 07:27:09;;;;;;;5.35;1.38;;;;;;;;;;5092574;28;20093;-85
2024/01/22 07:29:35;;;;;;;5.68;1.83;;;;;;;;;;5093023;28;20427;-85
2024/01/22 07:32:01;;;;;;;6.68;1.77;;;;;;;;;;5091484;28;20484;-84
2024/01/22 07:34:28;;;;;;;2.58;1.15;;;;;;;;;;5092583;28;20425;-85
2024/01/22 07:36:54;;;;;;;7.88;3.08;;;;;;;;;;5092868;28;20079;-86
2024/01/22 07:39:20;;;;;;;8.85;2.03;;;;;;;;;;5092361;28;20068;-86
2024/01/22 07:41:46;;;;;;;3.90;2.17;;;;;;;;;;5074728;28;20404;-83
2024/01/22 07:44:12;;;;;;;6.88;1.33;;;;;;;;;;5092306;28;20054;-86
2024/01/22 07:46:38;;;;;;;4.07;1.20;;;;;;;;;;5074223;28;20126;-86
2024/01/22 07:49:05;;;;;;;10.73;2.15;;;;;;;;;;5088022;28;20051;-87
2024/01/22 07:51:31;;;;;;;7.30;1.63;;;;;;;;;;5074178;28;20380;-84
2024/01/22 07:53:57;;;;;;;5.22;2.60;;;;;;;;;;5085097;28;20052;-85
2024/01/22 07:56:23;;;;;;;6.03;1.70;;;;;;;;;;5088714;28;20036;-84
2024/01/22 07:58:49;;;;;;;6.53;1.55;;;;;;;;;;5085469;28;20032;-87
2024/01/22 08:01:15;;;;;;;8.30;1.85;;;;;;;;;;5086833;28;20057;-88
2024/01/22 08:03:41;;;;;;;5.40;1.67;;;;;;;;;;5090256;28;20104;-87
2024/01/22 08:06:07;;;;;;;2.97;1.00;;;;;;;;;;5090430;28;20028;-87
2024/01/22 08:08:33;;;;;;;4.93;1.25;;;;;;;;;;5071546;28;20094;-88
2024/01/22 08:10:59;;;;;;;5.97;1.88;;;;;;;;;;5073429;28;20116;-89
2024/01/22 08:13:25;;;;;;;6.85;1.67;;;;;;;;;;5089936;28;20123;-88
2024/01/22 08:15:52;;;;;;;9.13;2.28;;;;;;;;;;5089000;28;20047;-88
2024/01/22 08:18:18;;;;;;;5.05;1.30;;;;;;;;;;5074791;28;20033;-88
2024/01/22 08:20:44;;;;;;;9.15;2.30;;;;;;;;;;5098117;28;20048;-88
2024/01/22 08:23:11;;;;;;;7.20;1.80;;;;;;;;;;5096489;28;20121;-85
2024/01/22 08:25:37;;;;;;;5.65;1.17;;;;;;;;;;5099343;28;20043;-86
2024/01/22 08:28:03;;;;;;;3.38;1.17;;;;;;;;;;5098296;28;20031;-86
2024/01/22 08:30:29;;;;;;;4.80;1.25;;;;;;;;;;5073157;28;20036;-85
2024/01/22 08:32:55;;;;;;;9.48;2.47;;;;;;;;;;5089874;28;20051;-84
2024/01/22 08:35:22;;;;;;;2.67;1.08;;;;;;;;;;5085630;28;20044;-86
2024/01/22 08:37:52;;;;;;;7.47;2.45;;;;;;;;;;5067980;28;20373;-88
2024/01/22 08:40:21;;;;;;;;;;;;;;;;;;5072418;28;20040;-86
2024/01/22 08:42:49;;;;;;;2.72;1.42;;;;;;;;;;5089255;28;19916;-87
2024/01/22 08:45:15;;;;;;;10.57;2.33;;;;;;;;;;5071057;28;20369;-85
2024/01/22 08:47:44;;;;;;;6.13;2.00;;;;;;;;;;5073048;28;20466;-87
2024/01/22 08:50:11;;;;;;;3.75;1.25;;;;;;;;;;5072694;28;20043;-86
2024/01/22 08:52:40;;;;;;;3.55;0.80;;;;;;;;;;5071129;28;20040;-88
2024/01/22 08:55:06;;;;;;;5.35;1.90;;;;;;;;;;5090618;28;20093;-87
2024/01/22 08:57:32;;;;;;;6.10;1.52;;;;;;;;;;5072963;28;20044;-87
2024/01/22 08:59:59;;;;;;;5.80;1.63;;;;;;;;;;5090210;28;20032;-85
2024/01/22 09:02:25;;;;;;;3.72;2.35;;;;;;;;;;5072324;28;20462;-87
2024/01/22 09:04:51;;;;;;;3.00;1.15;;;;;;;;;;5069609;28;20132;-86
2024/01/22 09:07:17;;;;;;;5.43;1.38;;;;;;;;;;5090553;28;20047;-86
2024/01/22 09:09:43;;;;;;;6.13;1.83;;;;;;;;;;5090549;28;20492;-87
2024/01/22 09:12:09;;;;;;;4.40;1.25;;;;;;;;;;5072219;28;20119;-87
2024/01/22 09:14:35;;;;;;;4.50;1.92;;;;;;;;;;5076394;28;20036;-88
2024/01/22 09:17:01;;;;;;;11.27;2.00;;;;;;;;;;5077436;28;20047;-88
2024/01/22 09:19:27;;;;;;;11.70;2.60;;;;;;;;;;5077121;28;20035;-85
2024/01/22 09:21:54;;;;;;;9.30;2.75;;;;;;;;;;5091518;28;20047;-88
2024/01/22 09:24:20;;;;;;;20.45;5.28;;;;;;;;;;5077254;28;20066;-86
2024/01/22 09:26:46;;;;;;;3.67;1.65;;;;;;;;;;5076320;28;20048;-87
2024/01/22 09:29:12;;;;;;;19.80;4.75;;;;;;;;;;5093711;28;20040;-85
2024/01/22 09:31:38;;;;;;;8.88;2.00;;;;;;;;;;5091626;28;20032;-85
2024/01/22 09:34:04;;;;;;;8.43;3.63;;;;;;;;;;5094029;28;20047;-84
2024/01/22 09:36:30;;;;;;;17.10;2.72;;;;;;;;;;5093572;28;20047;-85
2024/01/22 09:38:56;;;;;;;11.18;2.97;;;;;;;;;;5073545;28;20064;-89
2024/01/22 09:41:22;;;;;;;16.52;3.00;;;;;;;;;;5091422;28;20079;-87
2024/01/22 09:43:49;;;;;;;12.35;3.20;;;;;;;;;;5070754;28;20985;-87
2024/01/22 09:46:15;;;;;;;20.17;3.97;;;;;;;;;;5093148;28;20043;-89
2024/01/22 09:48:41;;;;;;;7.22;1.35;;;;;;;;;;5076410;28;20097;-87
2024/01/22 09:51:07;;;;;;;14.75;3.13;;;;;;;;;;5077081;28;20124;-90
2024/01/22 09:53:36;;;;;;;14.95;3.97;;;;;;;;;;5075039;28;20043;-89
2024/01/22 09:56:04;;;;;;;12.32;2.95;;;;;;;;;;5076547;28;20036;-88
2024/01/22 09:58:34;;;;;;;32.05;5.80;;;;;;;;;;5077381;28;20446;-88
2024/01/22 10:01:02;;;;;;;13.90;4.22;;;;;;;;;;5077520;28;20036;-87
2024/01/22 10:03:32;;;;;;;16.92;3.22;;;;;;;;;;5093381;28;20265;-88
2024/01/22 10:06:00;;;;;;;20.42;3.60;;;;;;;;;;5102811;28;20043;-88
2024/01/22 10:08:26;;;;;;;10.93;3.10;;;;;;;;;;5099474;28;20048;-88
2024/01/22 10:10:52;;;;;;;17.10;4.07;;;;;;;;;;5091425;28;20086;-88
2024/01/22 10:13:18;;;;;;;18.85;4.03;;;;;;;;;;5093565;28;20042;-87
2024/01/22 10:15:44;;;;;;;16.60;3.17;;;;;;;;;;5085347;28;20638;-87
2024/01/22 10:18:12;;;;;;;8.05;2.17;;;;;;;;;;5092034;28;20123;-87
2024/01/22 10:20:39;;;;;;;15.73;4.50;;;;;;;;;;5090327;28;20072;-89
2024/01/22 10:23:05;;;;;;;15.40;4.43;;;;;;;;;;5073155;28;20062;-91
2024/01/22 10:25:32;;;;;;;20.50;4.40;;;;;;;;;;5085630;28;20044;-88
2024/01/22 10:28:12;;;;;;;22.90;5.57;;;;;;;;;;5090982;28;20126;-88
2024/01/22 10:30:39;;;;;;;26.20;4.82;;;;;;;;;;5085785;28;20534;-89
2024/01/22 10:33:10;;;;;;;10.38;3.00;;;;;;;;;;5093105;28;20098;-89
2024/01/22 10:35:36;;;;;;;13.25;2.80;;;;;;;;;;5089576;28;20043;-87
2024/01/22 10:38:06;;;;;;;26.15;5.25;;;;;;;;;;5090418;28;20581;-86
2024/01/22 10:40:32;;;;;;;25.98;4.30;;;;;;;;;;5090958;28;20040;-90
2024/01/22 10:42:58;;;;;;;14.73;3.95;;;;;;;;;;5075401;28;20097;-89
2024/01/22 10:45:26;;;;;;;10.50;3.45;;;;;;;;;;5075564;28;20434;-90
2024/01/22 10:47:53;;;;;;;14.15;2.65;;;;;;;;;;5075435;28;20032;-86
2024/01/22 10:50:20;;;;;;;14.90;4.00;;;;;;;;;;5074886;28;20043;-87
2024/01/22 10:52:48;;;;;;;24.25;4.53;;;;;;;;;;5074330;28;20036;-88
2024/01/22 10:55:15;;;;;;;15.00;3.38;;;;;;;;;;5074689;28;20123;-87
2024/01/22 10:57:43;;;;;;;17.75;4.00;;;;;;;;;;5072462;28;20047;-86
2024/01/22 11:00:10;;;;;;;14.63;4.00;;;;;;;;;;5071297;28;20032;-87
2024/01/22 11:02:40;;;;;;;17.38;4.88;;;;;;;;;;5089444;28;20396;-88
2024/01/22 11:05:13;;;;;;;17.75;4.25;;;;;;;;;;5075374;28;20032;-90
2024/01/22 11:07:40;;;;;;;12.80;3.83;;;;;;;;;;5073975;28;20040;-87
2024/01/22 11:10:07;;;;;;;25.02;4.13;;;;;;;;;;5074838;28;20138;-89
2024/01/22 11:12:38;;;;;;;23.85;3.88;;;;;;;;;;5074268;28;20119;-88
2024/01/22 11:15:04;;;;;;;10.35;2.83;;;;;;;;;;5090748;28;20438;-85
2024/01/22 11:17:30;;;;;;;11.35;2.75;;;;;;;;;;5090631;28;20404;-87
2024/01/22 11:20:14;;;;;;;11.73;3.92;;;;;;;;;;5091399;28;20040;-91
2024/01/22 11:22:40;;;;;;;14.18;3.53;;;;;;;;;;5073431;28;20032;-90
2024/01/22 11:25:12;;;;;;;11.93;3.42;;;;;;;;;;5073521;28;20067;-89
2024/01/22 11:27:42;;;;;;;15.02;3.65;;;;;;;;;;5074959;28;20040;-90
2024/01/22 11:30:21;;;;;;;11.32;3.00;;;;;;;;;;5093423;28;20036;-91
2024/01/22 11:32:47;;;;;;;21.48;5.72;;;;;;;;;;5072757;28;20028;-90
2024/01/22 11:35:13;;;;;;;13.07;3.90;;;;;;;;;;5076633;28;20043;-89
2024/01/22 11:37:40;;;;;;;17.15;4.28;;;;;;;;;;5078722;28;20067;-87
2024/01/22 11:40:07;;;;;;;6.47;2.13;;;;;;;;;;5078873;28;20062;-86
2024/01/22 11:42:33;;;;;;;26.33;5.78;;;;;;;;;;5092018;28;20035;-86
2024/01/22 11:45:13;;;;;;;12.00;3.65;;;;;;;;;;5071648;28;20039;-89
2024/01/22 11:47:39;;;;;;;9.25;2.08;;;;;;;;;;5089382;28;20091;-85
2024/01/22 11:50:07;;;;;;;9.82;1.80;;;;;;;;;;5074705;28;20068;-87
2024/01/22 11:52:34;;;;;;;17.38;2.30;;;;;;;;;;5087386;28;20063;-86
2024/01/22 11:55:04;;;;;;;16.98;4.13;;;;;;;;;;5091074;28;20177;-87
2024/01/22 11:57:31;;;;;;;20.30;5.38;;;;;;;;;;5091144;28;20079;-86
2024/01/22 12:00:19;;;;;;;8.70;1.92;;;;;;;;;;5088721;28;20071;-88
2024/01/22 12:02:46;;;;;;;8.98;1.98;;;;;;;;;;5072795;28;20044;-88
2024/01/22 12:05:17;;;;;;;21.13;4.07;;;;;;;;;;5090429;28;20065;-86
2024/01/22 12:07:44;;;;;;;17.63;3.65;;;;;;;;;;5087312;28;20063;-86
2024/01/22 12:10:24;;;;;;;13.82;2.95;;;;;;;;;;5088151;28;20044;-88
2024/01/22 12:12:51;;;;;;;13.30;4.63;;;;;;;;;;5070045;28;20082;-91
2024/01/22 12:15:17;;;;;;;15.95;5.03;;;;;;;;;;5071468;28;20035;-89
2024/01/22 12:17:43;;;;;;;6.75;1.80;;;;;;;;;;5092171;28;20089;-86
2024/01/22 12:20:10;;;;;;;9.35;2.42;;;;;;;;;;5090694;28;20040;-86
2024/01/22 12:22:36;;;;;;;6.82;1.70;;;;;;;;;;5082847;28;20040;-87
2024/01/22 12:25:03;;;;;;;10.70;2.78;;;;;;;;;;5087544;28;20511;-85
2024/01/22 12:27:29;;;;;;;8.73;2.30;;;;;;;;;;5080088;28;20060;-86
2024/01/22 12:30:09;;;;;;;11.18;2.53;;;;;;;;;;5063181;28;20104;-86
2024/01/22 12:32:38;;;;;;;14.95;3.65;;;;;;;;;;5085469;28;20043;-89
2024/01/22 12:35:04;;;;;;;12.38;2.55;;;;;;;;;;5068245;28;20048;-86
2024/01/22 12:37:31;;;;;;;12.65;2.78;;;;;;;;;;5072758;28;20036;-89
2024/01/22 12:40:14;;;;;;;13.85;3.28;;;;;;;;;;5070217;28;20032;-88
2024/01/22 12:42:40;;;;;;;7.75;1.90;;;;;;;;;;5087668;28;20044;-85
2024/01/22 12:45:07;;;;;;;9.55;2.30;;;;;;;;;;5090967;28;20035;-86
2024/01/22 12:47:33;;;;;;;7.80;2.63;;;;;;;;;;5067784;28;20092;-89
2024/01/22 12:49:59;;;;;;;7.90;2.35;;;;;;;;;;5087279;28;20028;-87
2024/01/22 12:52:25;;;;;;;15.68;2.75;;;;;;;;;;5071343;28;20108;-90
2024/01/22 12:54:51;;;;;;;6.88;2.15;;;;;;;;;;5088833;28;20040;-88
2024/01/22 12:57:17;;;;;;;8.07;1.98;;;;;;;;;;5073045;28;20115;-87
2024/01/22 12:59:50;;;;;;;4.07;1.80;;;;;;;;;;5072466;28;20447;-87
2024/01/22 13:02:16;;;;;;;12.02;2.42;;;;;;;;;;5073593;28;20175;-88
2024/01/22 13:04:42;;;;;;;7.22;1.88;;;;;;;;;;5072525;28;20058;-86
2024/01/22 13:07:10;;;;;;;6.75;2.63;;;;;;;;;;5070866;28;20032;-86
2024/01/22 13:09:38;;;;;;;15.65;3.30;;;;;;;;;;5088829;28;20500;-86
2024/01/22 13:12:06;;;;;;;13.48;2.65;;;;;;;;;;5072658;28;20040;-85
2024/01/22 13:14:34;;;;;;;5.53;1.67;;;;;;;;;;5106037;28;20043;-87
2024/01/22 13:17:01;;;;;;;8.52;1.88;;;;;;;;;;5089632;28;20036;-85
2024/01/22 13:19:27;;;;;;;9.82;2.28;;;;;;;;;;5088823;28;20036;-85
2024/01/22 13:21:53;;;;;;;12.32;3.60;;;;;;;;;;5066433;28;20045;-87
2024/01/22 13:24:19;;;;;;;12.55;2.60;;;;;;;;;;5071633;28;20114;-87
2024/01/22 13:26:45;;;;;;;12.15;3.15;;;;;;;;;;5088095;28;20134;-87
2024/01/22 13:29:11;;;;;;;8.52;2.67;;;;;;;;;;5075605;28;20066;-89
2024/01/22 13:31:37;;;;;;;12.85;2.80;;;;;;;;;;5067607;28;20484;-85
2024/01/22 13:34:04;;;;;;;11.10;3.45;;;;;;;;;;5089603;28;20032;-88
2024/01/22 13:36:30;;;;;;;11.18;2.53;;;;;;;;;;5071014;28;20028;-87
2024/01/22 13:38:57;;;;;;;15.98;2.47;;;;;;;;;;5069230;28;20051;-84
2024/01/22 13:41:29;;;;;;;10.23;3.05;;;;;;;;;;5068855;28;20488;-86
2024/01/22 13:43:55;;;;;;;13.60;3.47;;;;;;;;;;5066842;28;20620;-88
2024/01/22 13:46:22;;;;;;;12.50;3.10;;;;;;;;;;5069433;28;20488;-89
2024/01/22 13:48:59;;;;;;;14.65;3.95;;;;;;;;;;5084414;28;20044;-88
2024/01/22 13:51:25;;;;;;;7.80;2.60;;;;;;;;;;5083348;28;20143;-89
2024/01/22 13:53:51;;;;;;;9.13;3.38;;;;;;;;;;5068861;28;20040;-86
2024/01/22 13:56:18;;;;;;;4.90;1.67;;;;;;;;;;5086778;28;20032;-88
2024/01/22 13:58:44;;;;;;;10.40;2.85;;;;;;;;;;5085431;28;20123;-89
2024/01/22 14:01:11;;;;;;;6.68;2.60;;;;;;;;;;5090487;28;20032;-88
2024/01/22 14:03:38;;;;;;;8.52;2.65;;;;;;;;;;5070749;28;20040;-87
2024/01/22 14:06:06;;;;;;;10.30;2.40;;;;;;;;;;5073279;28;20043;-87
2024/01/22 14:08:33;;;;;;;6.43;2.33;;;;;;;;;;5071690;28;20124;-88
2024/01/22 14:10:59;;;;;;;13.57;3.65;;;;;;;;;;5089286;28;20052;-91
2024/01/22 14:13:25;;;;;;;9.00;1.70;;;;;;;;;;5077297;28;20051;-87
2024/01/22 14:15:51;;;;;;;6.07;1.77;;;;;;;;;;5098322;28;20392;-88
2024/01/22 14:18:19;;;;;;;11.27;1.88;;;;;;;;;;5079064;28;20044;-86
2024/01/22 14:20:46;;;;;;;8.63;2.60;;;;;;;;;;5099862;28;20079;-88
2024/01/22 14:23:12;;;;;;;12.25;3.17;;;;;;;;;;5092599;28;20482;-88
2024/01/22 14:25:38;;;;;;;11.55;2.38;;;;;;;;;;5065828;28;20037;-85
2024/01/22 14:28:05;;;;;;;7.50;1.70;;;;;;;;;;5087396;28;20051;-88
2024/01/22 14:30:31;;;;;;;9.77;3.20;;;;;;;;;;5089142;28;20040;-88
2024/01/22 14:32:57;;;;;;;21.25;3.42;;;;;;;;;;5070869;28;20047;-89
2024/01/22 14:35:25;;;;;;;8.80;1.88;;;;;;;;;;5070053;28;20044;-90
2024/01/22 14:37:51;;;;;;;9.10;2.70;;;;;;;;;;5073480;28;20098;-86